Time;durP1;ratioP1;P1;durP2;ratioP2;P2;SDS_P1;SDS_P2;PMS_P1;PMS_P2;Temp;Humidity;BMP_temperature;BMP_pressure;BME280_temperature;BME280_humidity;BME280_pressure;Samples;Min_cycle;Max_cycle;Signal;HPM_P1;HPM_P2
2022/08/08 00:00:07;;;;;;;2.15;1.20;;;23.20;71.30;;;;;;5052815;28;20082;-60
2022/08/08 00:02:52;;;;;;;2.60;1.40;;;23.20;71.30;;;;;;5052753;28;20104;-61
2022/08/08 00:05:38;;;;;;;2.80;1.10;;;23.10;71.40;;;;;;5052864;28;20029;-61
2022/08/08 00:35:19;;;;;;;1.90;1.10;;;22.70;72.70;;;;;;5069701;28;20047;-61
2022/08/08 00:38:21;;;;;;;3.67;1.20;;;22.60;72.90;;;;;;5069763;28;20039;-61
2022/08/08 00:41:15;;;;;;;2.30;1.10;;;22.50;73.00;;;;;;5068863;28;20545;-60
2022/08/08 00:44:18;;;;;;;3.55;1.52;;;22.50;73.20;;;;;;5051966;28;20044;-61
2022/08/08 00:46:49;;;;;;;3.67;1.33;;;22.40;73.40;;;;;;5052089;28;20025;-60
2022/08/08 00:49:56;;;;;;;2.42;1.17;;;22.30;73.90;;;;;;5051956;28;20032;-60
2022/08/08 00:52:47;;;;;;;2.15;1.10;;;22.30;73.90;;;;;;5029995;28;20049;-60
2022/08/08 00:55:25;;;;;;;3.25;1.20;;;22.20;74.10;;;;;;5029257;28;20045;-61
2022/08/08 00:58:16;;;;;;;1.95;1.20;;;22.20;74.20;;;;;;5030153;28;20040;-61
2022/08/08 01:01:06;;;;;;;2.92;1.30;;;22.20;74.00;;;;;;5029806;28;20041;-61
2022/08/08 01:03:53;;;;;;;3.25;1.40;;;22.10;73.90;;;;;;5029598;28;20121;-61
2022/08/08 01:06:31;;;;;;;4.03;1.40;;;22.00;74.00;;;;;;5029583;28;20037;-61
2022/08/08 01:09:19;;;;;;;2.05;1.20;;;21.90;74.40;;;;;;5029205;28;20068;-60
2022/08/08 01:12:21;;;;;;;2.47;1.23;;;21.90;74.20;;;;;;5029607;28;20431;-60
2022/08/08 01:15:24;;;;;;;1.77;1.20;;;21.90;74.10;;;;;;5029776;28;20422;-60
2022/08/08 01:17:53;;;;;;;4.30;1.33;;;21.80;74.50;;;;;;5030041;28;20036;-60
2022/08/08 01:20:37;;;;;;;1.63;1.00;;;21.80;74.60;;;;;;5029435;28;20113;-61
2022/08/08 01:23:21;;;;;;;2.00;1.40;;;21.80;74.50;;;;;;5029537;28;20473;-60
2022/08/08 01:26:05;;;;;;;5.82;1.20;;;21.80;74.40;;;;;;5029549;28;20041;-60
2022/08/08 01:28:33;;;;;;;1.35;1.20;;;21.70;74.60;;;;;;5035270;28;20036;-60
2022/08/08 01:31:17;;;;;;;2.65;1.20;;;21.60;75.20;;;;;;5051597;28;20455;-60
2022/08/08 01:34:34;;;;;;;3.03;1.20;;;21.60;75.10;;;;;;5051423;28;20405;-60
2022/08/08 01:37:15;;;;;;;2.00;1.23;;;21.60;75.40;;;;;;5049915;28;20454;-61
2022/08/08 01:39:57;;;;;;;2.45;1.20;;;21.50;75.30;;;;;;5051349;28;20385;-61
2022/08/08 01:42:41;;;;;;;1.60;1.05;;;21.50;75.40;;;;;;5051891;28;20032;-60
2022/08/08 01:45:25;;;;;;;3.63;1.23;;;21.50;75.60;;;;;;5052842;28;20458;-61
2022/08/08 01:48:15;;;;;;;1.80;1.20;;;21.40;75.70;;;;;;5055257;28;20017;-61
2022/08/08 01:51:09;;;;;;;4.50;1.40;;;21.30;76.00;;;;;;5055708;28;20033;-61
2022/08/08 01:53:53;;;;;;;2.63;1.08;;;21.30;76.00;;;;;;5054664;28;20485;-61
2022/08/08 01:56:34;;;;;;;1.95;1.15;;;21.30;75.60;;;;;;5055033;28;20044;-61
2022/08/08 01:59:31;;;;;;;3.92;1.25;;;21.20;75.80;;;;;;5055269;28;20151;-60
2022/08/08 02:02:09;;;;;;;2.88;1.20;;;21.20;75.90;;;;;;5054720;28;20033;-61
2022/08/08 02:04:53;;;;;;;1.63;1.10;;;21.00;77.40;;;;;;5055364;28;20025;-61
2022/08/08 02:07:22;;;;;;;;;;;21.00;76.70;;;;;;5055373;28;20021;-61
2022/08/08 02:10:26;;;;;;;2.00;1.35;;;21.00;77.00;;;;;;5054938;28;20286;-61
2022/08/08 02:13:12;;;;;;;4.30;1.30;;;20.80;76.90;;;;;;5054903;28;20021;-61
2022/08/08 02:15:58;;;;;;;1.88;1.10;;;20.70;77.60;;;;;;5054556;28;20648;-61
2022/08/08 02:18:36;;;;;;;2.85;1.20;;;20.80;77.80;;;;;;5054545;28;20029;-61
2022/08/08 02:24:42;;;;;;;2.78;1.10;;;20.60;78.20;;;;;;5054752;28;20114;-61
2022/08/08 02:27:17;;;;;;;1.67;1.10;;;20.60;77.50;;;;;;5051421;28;20037;-61
2022/08/08 02:30:04;;;;;;;3.17;1.20;;;20.60;77.60;;;;;;5054348;28;20039;-60
2022/08/08 02:32:36;;;;;;;2.75;1.13;;;20.50;78.00;;;;;;5054337;28;20021;-61
2022/08/08 02:35:17;;;;;;;2.80;1.10;;;20.40;79.00;;;;;;5054141;28;20415;-61
2022/08/08 02:38:01;;;;;;;2.50;1.23;;;20.30;79.70;;;;;;5054230;28;20082;-61
2022/08/08 02:40:45;;;;;;;1.92;1.10;;;20.30;79.50;;;;;;5054096;28;20032;-61
2022/08/08 02:43:17;;;;;;;;;;;20.30;79.90;;;;;;5054611;28;20091;-61
2022/08/08 02:45:54;;;;;;;2.22;1.20;;;20.20;80.50;;;;;;5054369;28;19908;-60
2022/08/08 02:48:31;;;;;;;1.80;1.10;;;20.10;81.10;;;;;;5054058;28;20056;-61
2022/08/08 02:51:05;;;;;;;2.03;1.20;;;20.00;80.80;;;;;;5053668;28;20470;-61
2022/08/08 02:53:42;;;;;;;1.33;1.02;;;19.90;81.50;;;;;;5053861;28;20028;-60
2022/08/08 02:56:28;;;;;;;2.28;1.10;;;19.70;81.10;;;;;;5053234;28;20572;-61
2022/08/08 02:59:31;;;;;;;1.38;1.15;;;19.80;80.90;;;;;;5053749;28;20505;-61
2022/08/08 03:02:34;;;;;;;2.15;1.23;;;19.90;81.10;;;;;;5054113;28;20025;-60
2022/08/08 03:05:27;;;;;;;1.80;1.20;;;19.90;80.30;;;;;;5053669;28;20040;-61
2022/08/08 03:08:41;;;;;;;1.33;1.00;;;19.80;80.20;;;;;;5053805;28;20094;-60
2022/08/08 03:11:40;;;;;;;2.22;1.10;;;19.80;80.20;;;;;;5031206;28;20119;-60
2022/08/08 03:14:36;;;;;;;3.97;1.33;;;19.80;80.80;;;;;;5031478;28;20041;-60
2022/08/08 03:17:01;;;;;;;2.45;1.10;;;19.90;80.30;;;;;;5031348;28;20026;-61
2022/08/08 03:20:10;;;;;;;2.40;1.13;;;19.80;79.80;;;;;;5030993;28;20041;-61
2022/08/08 03:22:48;;;;;;;2.83;1.20;;;19.80;79.90;;;;;;4991969;28;20089;-60
2022/08/08 03:25:16;;;;;;;1.42;1.17;;;19.70;79.90;;;;;;4992013;28;20026;-61
2022/08/08 03:27:56;;;;;;;2.58;1.20;;;19.70;79.90;;;;;;4991815;28;20036;-61
2022/08/08 03:30:22;;;;;;;2.30;1.20;;;19.60;80.10;;;;;;4992018;28;20038;-61
2022/08/08 03:35:38;;;;;;;2.30;1.00;;;19.60;80.30;;;;;;4978315;28;20064;-61
2022/08/08 03:38:03;;;;;;;3.17;1.05;;;19.60;80.90;;;;;;4991460;28;20033;-61
2022/08/08 03:40:29;;;;;;;1.85;1.25;;;19.50;81.20;;;;;;4991674;28;20038;-60
2022/08/08 03:42:55;;;;;;;1.10;1.00;;;19.40;81.30;;;;;;4991417;28;20450;-61
2022/08/08 03:45:23;;;;;;;3.53;1.10;;;19.40;81.50;;;;;;4991412;28;20076;-61
2022/08/08 03:47:58;;;;;;;1.60;1.20;;;19.30;82.20;;;;;;4991211;28;20050;-61
2022/08/08 03:50:25;;;;;;;2.13;1.20;;;19.30;82.00;;;;;;4991951;28;20514;-60
2022/08/08 03:52:52;;;;;;;3.38;1.20;;;19.20;83.00;;;;;;4991333;28;20093;-61
2022/08/08 03:55:19;;;;;;;1.70;1.10;;;19.10;82.90;;;;;;4991316;28;20488;-61
2022/08/08 03:57:50;;;;;;;2.65;1.20;;;19.10;84.10;;;;;;4994717;28;20034;-60
2022/08/08 04:00:18;;;;;;;1.23;1.13;;;19.00;84.40;;;;;;5032624;28;20067;-61
2022/08/08 04:02:53;;;;;;;2.78;1.17;;;18.90;84.70;;;;;;5032594;28;20044;-61
2022/08/08 04:05:19;;;;;;;2.17;1.00;;;18.90;83.80;;;;;;5032557;28;20033;-61
2022/08/08 04:07:45;;;;;;;1.30;0.90;;;18.90;84.70;;;;;;5032027;28;20048;-60
2022/08/08 04:10:11;;;;;;;3.60;1.30;;;18.80;85.00;;;;;;5032920;28;20471;-61
2022/08/08 04:12:37;;;;;;;6.47;1.20;;;18.70;85.00;;;;;;5032501;28;20503;-61
2022/08/08 04:15:05;;;;;;;1.98;1.10;;;18.60;85.30;;;;;;5032436;28;20034;-61
2022/08/08 04:17:30;;;;;;;3.90;1.30;;;18.60;85.50;;;;;;5031969;28;20517;-61
2022/08/08 04:19:56;;;;;;;2.45;1.23;;;18.60;85.60;;;;;;5032485;28;20106;-61
2022/08/08 04:22:25;;;;;;;2.40;1.30;;;18.50;86.20;;;;;;5032836;28;20364;-61
2022/08/08 04:24:52;;;;;;;1.73;1.20;;;18.50;86.20;;;;;;5032273;28;20036;-61
2022/08/08 04:27:19;;;;;;;2.03;1.10;;;18.40;86.70;;;;;;5030868;28;20025;-61
2022/08/08 04:29:44;;;;;;;2.10;1.10;;;18.30;87.10;;;;;;5032114;28;20048;-61
2022/08/08 04:32:13;;;;;;;2.97;1.02;;;18.30;86.70;;;;;;5032024;28;20030;-61
2022/08/08 04:34:42;;;;;;;2.97;1.02;;;18.30;86.80;;;;;;5032218;28;20079;-61
2022/08/08 04:37:08;;;;;;;3.17;1.30;;;18.30;86.30;;;;;;5032464;28;20029;-60
2022/08/08 04:39:34;;;;;;;1.40;1.10;;;18.20;87.20;;;;;;5048118;28;20044;-60
2022/08/08 04:41:59;;;;;;;2.80;1.42;;;18.20;86.50;;;;;;5050661;28;20021;-60
2022/08/08 04:44:27;;;;;;;2.08;1.10;;;18.10;87.20;;;;;;5051869;28;20052;-61
2022/08/08 04:46:54;;;;;;;5.57;1.20;;;18.10;86.80;;;;;;5051486;28;20021;-61
2022/08/08 04:49:19;;;;;;;7.07;1.63;;;18.00;88.30;;;;;;5051893;28;20390;-61
2022/08/08 04:51:45;;;;;;;7.25;1.30;;;17.90;88.80;;;;;;5051817;28;20017;-61
2022/08/08 04:54:11;;;;;;;6.35;1.83;;;17.90;87.80;;;;;;5051584;28;20041;-60
2022/08/08 04:56:37;;;;;;;6.55;1.88;;;17.90;88.00;;;;;;5050625;28;20500;-60
2022/08/08 04:59:03;;;;;;;3.08;2.17;;;17.90;88.10;;;;;;5052145;28;20521;-61
2022/08/08 05:01:29;;;;;;;4.57;2.20;;;17.80;88.10;;;;;;5051438;28;20025;-61
2022/08/08 05:03:55;;;;;;;3.40;1.83;;;17.80;88.30;;;;;;5051781;28;20489;-61
2022/08/08 05:06:21;;;;;;;4.00;2.40;;;17.80;89.30;;;;;;5051535;28;20111;-60
2022/08/08 05:08:48;;;;;;;3.28;1.40;;;17.60;90.00;;;;;;5051662;28;20031;-60
2022/08/08 05:11:13;;;;;;;3.20;1.60;;;17.70;90.00;;;;;;5051640;28;20083;-61
2022/08/08 05:13:40;;;;;;;3.38;1.20;;;17.60;89.80;;;;;;5051940;28;20033;-61
2022/08/08 05:16:07;;;;;;;2.90;1.45;;;17.70;89.10;;;;;;5051292;28;20057;-61
2022/08/08 05:18:32;;;;;;;5.38;1.27;;;17.70;90.30;;;;;;5052760;28;20100;-61
2022/08/08 05:20:59;;;;;;;3.03;1.33;;;17.60;90.10;;;;;;5055545;28;20116;-61
2022/08/08 05:23:25;;;;;;;2.85;1.42;;;17.70;90.20;;;;;;5056038;28;20458;-61
2022/08/08 05:25:51;;;;;;;1.88;1.27;;;17.70;90.00;;;;;;5054289;28;20040;-61
2022/08/08 05:28:17;;;;;;;2.78;1.38;;;17.70;89.50;;;;;;5055643;28;20541;-61
2022/08/08 05:30:43;;;;;;;3.38;1.60;;;17.60;90.00;;;;;;5055517;28;20096;-61
2022/08/08 05:33:09;;;;;;;1.27;1.17;;;17.70;90.10;;;;;;5055720;28;20105;-61
2022/08/08 05:35:35;;;;;;;3.03;1.65;;;17.60;90.00;;;;;;5055322;28;20119;-61
2022/08/08 05:38:05;;;;;;;3.35;1.20;;;17.60;90.20;;;;;;5054110;28;20021;-61
2022/08/08 05:40:33;;;;;;;6.50;1.30;;;17.60;90.10;;;;;;5055263;28;20056;-61
2022/08/08 05:43:03;;;;;;;6.65;1.60;;;17.70;90.10;;;;;;5053869;28;20078;-61
2022/08/08 05:45:35;;;;;;;2.58;1.40;;;17.60;90.50;;;;;;5054855;28;20031;-61
2022/08/08 05:48:02;;;;;;;4.40;1.35;;;17.70;90.30;;;;;;5055193;28;20033;-61
2022/08/08 05:50:30;;;;;;;9.50;1.55;;;17.60;90.40;;;;;;5055388;28;20417;-61
2022/08/08 05:52:57;;;;;;;3.47;1.27;;;17.70;90.60;;;;;;5055145;28;20037;-61
2022/08/08 05:55:23;;;;;;;3.35;1.20;;;17.70;90.70;;;;;;5055086;28;20025;-61
2022/08/08 05:57:52;;;;;;;2.40;1.20;;;17.70;91.30;;;;;;5054497;28;20036;-60
2022/08/08 06:00:18;;;;;;;4.60;1.38;;;17.70;90.80;;;;;;5055485;28;20558;-61
2022/08/08 06:05:43;;;;;;;3.85;1.63;;;17.60;90.90;;;;;;5055211;28;20044;-61
2022/08/08 06:08:13;;;;;;;5.82;1.50;;;17.60;91.10;;;;;;5054050;28;20049;-61
2022/08/08 06:10:39;;;;;;;3.72;1.58;;;17.50;91.80;;;;;;5054919;28;20033;-60
2022/08/08 06:13:07;;;;;;;1.75;1.40;;;17.60;91.60;;;;;;5054442;28;20033;-60
2022/08/08 06:15:36;;;;;;;1.70;1.50;;;17.70;91.80;;;;;;5054677;28;20452;-61
2022/08/08 06:18:03;;;;;;;3.05;1.35;;;17.80;91.30;;;;;;5054750;28;20028;-61
2022/08/08 06:20:29;;;;;;;3.25;1.25;;;18.00;91.90;;;;;;5054759;28;20449;-61
2022/08/08 06:22:54;;;;;;;2.33;1.27;;;18.20;91.60;;;;;;5054588;28;20100;-61
2022/08/08 06:25:20;;;;;;;3.70;1.55;;;18.50;91.30;;;;;;5054637;28;20037;-61
2022/08/08 06:27:54;;;;;;;3.75;1.50;;;18.80;91.20;;;;;;5054263;28;20025;-61
2022/08/08 06:30:20;;;;;;;2.10;1.30;;;19.20;90.90;;;;;;5053812;28;20029;-60
2022/08/08 06:32:54;;;;;;;5.95;1.65;;;19.60;90.30;;;;;;5054562;28;20048;-61
2022/08/08 06:35:20;;;;;;;7.57;1.63;;;20.00;90.20;;;;;;5054328;28;20094;-61
2022/08/08 06:37:54;;;;;;;4.20;1.48;;;20.50;90.00;;;;;;5054236;28;20025;-60
2022/08/08 06:40:23;;;;;;;4.50;1.45;;;21.00;89.00;;;;;;5054701;28;20037;-61
2022/08/08 06:43:01;;;;;;;4.40;1.33;;;21.40;86.40;;;;;;5053768;28;20025;-61
2022/08/08 06:45:32;;;;;;;4.93;1.55;;;22.00;84.50;;;;;;5054230;28;20037;-60
2022/08/08 06:47:58;;;;;;;2.70;1.10;;;22.50;81.40;;;;;;5054264;28;20029;-60
2022/08/08 06:50:25;;;;;;;3.28;1.20;;;22.90;80.40;;;;;;5054567;28;20426;-61
2022/08/08 06:52:50;;;;;;;4.45;1.30;;;23.40;79.60;;;;;;5053964;28;20029;-60
2022/08/08 06:55:18;;;;;;;6.07;1.58;;;23.80;77.60;;;;;;5053946;28;20102;-60
2022/08/08 06:57:43;;;;;;;7.35;1.23;;;24.20;76.50;;;;;;5053739;28;20087;-60
2022/08/08 07:00:09;;;;;;;5.93;1.35;;;24.70;76.30;;;;;;5054278;28;20025;-60
2022/08/08 07:02:38;;;;;;;4.85;1.30;;;25.00;74.90;;;;;;5053970;28;20028;-60
2022/08/08 07:05:12;;;;;;;2.95;1.20;;;25.30;74.00;;;;;;5053940;28;20037;-60
2022/08/08 07:08:04;;;;;;;2.55;1.20;;;25.80;73.60;;;;;;5053723;28;20021;-60
2022/08/08 07:10:37;;;;;;;3.70;1.10;;;26.10;72.60;;;;;;5053485;28;20029;-60
2022/08/08 07:13:09;;;;;;;3.45;1.17;;;26.70;71.60;;;;;;5053758;28;20071;-58
2022/08/08 07:16:11;;;;;;;2.03;1.20;;;27.00;71.40;;;;;;5053698;28;20045;-60
2022/08/08 07:18:45;;;;;;;2.40;1.25;;;27.30;69.70;;;;;;5053616;28;20115;-60
2022/08/08 07:21:16;;;;;;;3.75;1.20;;;27.70;70.60;;;;;;5053844;28;20021;-58
2022/08/08 07:23:51;;;;;;;3.38;1.30;;;27.90;68.50;;;;;;5053701;28;20033;-58
2022/08/08 07:26:21;;;;;;;2.08;1.20;;;27.90;67.70;;;;;;5053238;28;20389;-59
2022/08/08 07:28:48;;;;;;;3.63;1.20;;;28.00;68.00;;;;;;5053694;28;20017;-59
2022/08/08 07:31:14;;;;;;;4.75;1.20;;;28.10;67.80;;;;;;5053250;28;20029;-59
2022/08/08 07:33:41;;;;;;;4.75;1.27;;;28.60;67.20;;;;;;5053455;28;20120;-59
2022/08/08 07:36:09;;;;;;;1.35;1.00;;;28.80;66.30;;;;;;5053133;28;20080;-58
2022/08/08 07:38:37;;;;;;;2.85;1.40;;;28.70;66.20;;;;;;5051506;28;20428;-58
2022/08/08 07:41:05;;;;;;;3.88;1.23;;;28.60;65.90;;;;;;5052798;28;20039;-58
2022/08/08 07:43:35;;;;;;;6.00;1.40;;;28.80;66.80;;;;;;5052958;28;20045;-58
2022/08/08 07:46:01;;;;;;;4.72;1.10;;;28.90;66.10;;;;;;5053056;28;20255;-58
2022/08/08 07:48:28;;;;;;;2.13;1.30;;;29.10;65.80;;;;;;5052981;28;20565;-58
2022/08/08 07:50:57;;;;;;;3.20;1.20;;;29.30;66.50;;;;;;5052830;28;20108;-59
2022/08/08 07:53:23;;;;;;;2.75;1.30;;;30.00;65.90;;;;;;5053248;28;20445;-59
2022/08/08 07:55:51;;;;;;;2.33;1.20;;;30.40;64.70;;;;;;5052553;28;20032;-58
2022/08/08 07:58:31;;;;;;;3.65;1.40;;;30.60;65.20;;;;;;5052874;28;20043;-58
2022/08/08 08:01:14;;;;;;;3.20;1.20;;;30.90;64.80;;;;;;5052343;28;20535;-59
2022/08/08 08:03:58;;;;;;;4.28;1.40;;;31.10;63.90;;;;;;5051928;28;20439;-58
2022/08/08 08:06:26;;;;;;;2.22;1.20;;;30.90;63.00;;;;;;5052349;28;20041;-59
2022/08/08 08:09:10;;;;;;;3.95;1.20;;;31.10;63.00;;;;;;5052537;28;20025;-58
2022/08/08 08:11:41;;;;;;;2.25;1.50;;;31.50;63.10;;;;;;5052313;28;20116;-58
2022/08/08 08:14:08;;;;;;;2.90;1.20;;;31.70;62.80;;;;;;5051902;28;20389;-58
2022/08/08 08:16:37;;;;;;;2.17;1.13;;;32.00;62.40;;;;;;5052457;28;20033;-58
2022/08/08 08:19:11;;;;;;;5.75;1.20;;;32.30;62.10;;;;;;5052331;28;20086;-59
2022/08/08 08:21:42;;;;;;;1.63;1.25;;;32.60;61.80;;;;;;5052384;28;20104;-58
2022/08/08 08:24:08;;;;;;;3.15;1.20;;;32.90;61.40;;;;;;5051981;28;20036;-58
2022/08/08 08:26:34;;;;;;;2.05;1.02;;;32.80;60.70;;;;;;5052649;28;20025;-59
2022/08/08 08:28:59;;;;;;;3.15;1.40;;;33.10;61.30;;;;;;5052377;28;20031;-58
2022/08/08 08:31:25;;;;;;;2.75;1.13;;;33.40;60.90;;;;;;5052347;28;20031;-58
2022/08/08 08:33:51;;;;;;;4.35;1.20;;;33.70;61.30;;;;;;5052034;28;20132;-59
2022/08/08 08:36:17;;;;;;;2.30;1.10;;;33.90;60.30;;;;;;5051830;28;20031;-58
2022/08/08 08:38:43;;;;;;;6.15;1.33;;;34.00;59.60;;;;;;5052104;28;20397;-58
2022/08/08 08:41:12;;;;;;;3.00;1.20;;;33.80;59.20;;;;;;5052123;28;20029;-58
2022/08/08 08:43:40;;;;;;;3.72;1.38;;;34.30;60.20;;;;;;5051930;28;20456;-59
2022/08/08 08:46:12;;;;;;;2.28;1.35;;;34.60;60.20;;;;;;5051988;28;20032;-58
2022/08/08 08:48:41;;;;;;;3.05;1.33;;;34.70;59.00;;;;;;5052186;28;20445;-59
2022/08/08 08:51:14;;;;;;;1.90;1.30;;;34.80;59.50;;;;;;5052308;28;20037;-58
2022/08/08 08:53:51;;;;;;;2.10;1.30;;;34.70;58.50;;;;;;5051147;28;20028;-58
2022/08/08 08:56:22;;;;;;;2.53;1.23;;;35.20;59.60;;;;;;5051813;28;20024;-58
2022/08/08 08:58:49;;;;;;;2.97;1.33;;;35.40;58.70;;;;;;5051902;28;20028;-59
2022/08/08 09:01:17;;;;;;;1.77;1.40;;;35.50;58.40;;;;;;5052230;28;20028;-58
2022/08/08 09:03:46;;;;;;;7.00;1.40;;;35.40;58.40;;;;;;5051700;28;20062;-58
2022/08/08 09:06:19;;;;;;;2.75;1.20;;;35.30;57.60;;;;;;5051774;28;20096;-58
2022/08/08 09:08:52;;;;;;;3.13;1.20;;;35.40;57.50;;;;;;5051798;28;20103;-58
2022/08/08 09:11:18;;;;;;;7.15;1.38;;;35.20;57.90;;;;;;5050785;28;20507;-58
2022/08/08 09:13:46;;;;;;;2.78;1.40;;;35.70;58.60;;;;;;5050310;28;20134;-58
2022/08/08 09:16:11;;;;;;;2.00;1.23;;;35.70;57.60;;;;;;5051784;28;20025;-59
2022/08/08 09:18:42;;;;;;;2.78;1.50;;;35.90;58.00;;;;;;5051986;28;20032;-58
2022/08/08 09:21:08;;;;;;;3.35;1.17;;;36.00;56.90;;;;;;5051254;28;20037;-58
2022/08/08 09:23:35;;;;;;;2.65;1.20;;;36.30;57.80;;;;;;5051844;28;20182;-59
2022/08/08 09:26:11;;;;;;;2.35;1.40;;;36.60;57.50;;;;;;5051499;28;20040;-58
2022/08/08 09:28:39;;;;;;;3.20;1.20;;;36.70;56.30;;;;;;5051702;28;20106;-58
2022/08/08 09:31:19;;;;;;;4.05;1.20;;;36.70;56.70;;;;;;5051518;28;20057;-58
2022/08/08 09:33:50;;;;;;;2.67;1.20;;;36.40;55.50;;;;;;5051872;28;20032;-58
2022/08/08 09:36:21;;;;;;;3.63;1.20;;;36.70;57.20;;;;;;5051113;28;20420;-59
2022/08/08 09:38:58;;;;;;;2.95;1.02;;;36.30;55.80;;;;;;5051441;28;20021;-58
2022/08/08 09:41:42;;;;;;;3.53;1.25;;;36.30;55.60;;;;;;5052031;28;20029;-58
2022/08/08 09:44:22;;;;;;;2.45;1.40;;;36.10;55.40;;;;;;5051370;28;20064;-58
2022/08/08 09:46:50;;;;;;;3.13;1.40;;;35.90;54.90;;;;;;5051375;28;20056;-58
2022/08/08 09:49:19;;;;;;;2.13;1.35;;;35.80;55.50;;;;;;5051835;28;20478;-58
2022/08/08 09:51:53;;;;;;;1.90;1.50;;;35.10;55.70;;;;;;5051438;28;20039;-58
2022/08/08 09:54:24;;;;;;;2.90;1.60;;;35.50;56.10;;;;;;5051377;28;20108;-58
2022/08/08 09:56:54;;;;;;;1.95;1.33;;;36.00;56.30;;;;;;5051394;28;20481;-57
2022/08/08 09:59:31;;;;;;;4.05;1.55;;;36.20;55.80;;;;;;5051658;28;20502;-58
2022/08/08 10:02:02;;;;;;;2.65;1.23;;;35.90;55.00;;;;;;5051194;28;20040;-58
2022/08/08 10:04:29;;;;;;;1.70;1.20;;;36.00;55.80;;;;;;5051304;28;20021;-58
2022/08/08 10:06:56;;;;;;;4.43;1.40;;;36.10;55.90;;;;;;5053926;28;20071;-58
2022/08/08 10:09:34;;;;;;;1.77;1.30;;;35.90;55.90;;;;;;5055351;28;20017;-58
2022/08/08 10:12:03;;;;;;;2.97;1.40;;;35.80;55.80;;;;;;5054825;28;20116;-58
2022/08/08 10:14:33;;;;;;;5.72;1.40;;;35.30;54.30;;;;;;5055159;28;20041;-58
2022/08/08 10:17:03;;;;;;;4.72;1.40;;;35.20;55.90;;;;;;5054742;28;20055;-58
2022/08/08 10:19:40;;;;;;;3.70;1.40;;;35.20;55.20;;;;;;5054433;28;20075;-58
2022/08/08 10:22:07;;;;;;;1.85;1.23;;;35.00;55.60;;;;;;5054552;28;20029;-58
2022/08/08 10:24:34;;;;;;;2.63;1.35;;;34.80;55.10;;;;;;5054997;28;20025;-58
2022/08/08 10:27:06;;;;;;;4.03;1.50;;;34.70;56.20;;;;;;5054062;28;20033;-58
2022/08/08 10:29:47;;;;;;;1.60;1.20;;;34.70;55.30;;;;;;5054774;28;20044;-58
2022/08/08 10:32:36;;;;;;;2.33;1.30;;;34.60;55.20;;;;;;5054655;28;20485;-58
2022/08/08 10:35:22;;;;;;;3.08;1.20;;;34.60;55.90;;;;;;5054425;28;20064;-58
2022/08/08 10:38:13;;;;;;;2.85;1.30;;;34.80;56.30;;;;;;5054254;28;20392;-58
2022/08/08 10:40:40;;;;;;;3.10;1.23;;;34.50;55.70;;;;;;5054329;28;20025;-58
2022/08/08 10:43:06;;;;;;;2.78;1.40;;;34.80;56.00;;;;;;5053999;28;20071;-57
2022/08/08 10:45:46;;;;;;;5.35;1.38;;;35.00;55.70;;;;;;5054035;28;20073;-57
2022/08/08 10:48:12;;;;;;;1.35;1.15;;;34.60;55.60;;;;;;5053786;28;20033;-57
2022/08/08 10:50:38;;;;;;;2.60;1.27;;;34.70;56.50;;;;;;5054490;28;20025;-58
2022/08/08 10:53:07;;;;;;;2.85;1.30;;;34.90;56.20;;;;;;5054022;28;20029;-58
2022/08/08 10:55:34;;;;;;;4.07;1.33;;;34.60;54.70;;;;;;5052494;28;20044;-57
2022/08/08 10:58:02;;;;;;;4.85;1.33;;;34.40;55.50;;;;;;5054465;28;20025;-57
2022/08/08 11:00:29;;;;;;;2.03;1.33;;;34.30;55.70;;;;;;5053729;28;20040;-58
2022/08/08 11:02:56;;;;;;;1.75;1.10;;;34.50;56.20;;;;;;5053407;28;20188;-58
2022/08/08 11:05:22;;;;;;;3.13;1.50;;;34.30;54.80;;;;;;5054263;28;20025;-58
2022/08/08 11:07:56;;;;;;;2.95;1.30;;;34.30;54.00;;;;;;5053804;28;20037;-58
2022/08/08 11:10:24;;;;;;;1.75;1.50;;;34.30;54.90;;;;;;5053699;28;20048;-58
2022/08/08 11:12:52;;;;;;;1.85;1.10;;;34.00;54.10;;;;;;5053828;28;20064;-57
2022/08/08 11:15:23;;;;;;;2.35;1.30;;;33.90;54.30;;;;;;5053392;28;20044;-57
2022/08/08 11:17:50;;;;;;;2.13;1.25;;;33.80;54.20;;;;;;5053327;28;20041;-58
2022/08/08 11:20:25;;;;;;;3.60;1.48;;;33.80;54.60;;;;;;5053421;28;20067;-58
2022/08/08 11:22:53;;;;;;;3.40;1.30;;;34.00;55.40;;;;;;5052353;28;20438;-57
2022/08/08 11:25:24;;;;;;;3.10;1.33;;;33.90;55.30;;;;;;5053795;28;20368;-58
2022/08/08 11:27:53;;;;;;;2.75;1.50;;;34.00;55.40;;;;;;5053552;28;20032;-58
2022/08/08 11:30:21;;;;;;;3.58;1.33;;;33.80;54.50;;;;;;5053793;28;20446;-57
2022/08/08 11:32:51;;;;;;;2.60;1.42;;;33.90;54.50;;;;;;5053011;28;20024;-58
2022/08/08 11:35:18;;;;;;;2.90;1.30;;;34.00;54.70;;;;;;5052009;28;20032;-57
2022/08/08 11:37:43;;;;;;;2.88;1.60;;;34.00;54.80;;;;;;5053179;28;20382;-57
2022/08/08 11:40:12;;;;;;;2.15;1.35;;;33.70;55.30;;;;;;5053273;28;20032;-57
2022/08/08 11:42:40;;;;;;;1.95;1.55;;;33.70;53.60;;;;;;5052970;28;20112;-55
2022/08/08 11:45:08;;;;;;;3.80;1.45;;;33.80;54.00;;;;;;5053002;28;20052;-57
2022/08/08 11:47:34;;;;;;;2.40;1.42;;;34.00;55.00;;;;;;5052608;28;20110;-57
2022/08/08 11:50:18;;;;;;;1.65;1.33;;;33.90;54.20;;;;;;5052951;28;20474;-57
2022/08/08 11:52:45;;;;;;;2.40;1.60;;;34.00;55.50;;;;;;5053092;28;20437;-57
2022/08/08 11:55:19;;;;;;;2.08;1.33;;;34.00;54.00;;;;;;5053241;28;20383;-58
2022/08/08 11:57:45;;;;;;;4.15;1.40;;;33.90;54.30;;;;;;5052345;28;20156;-58
2022/08/08 12:00:18;;;;;;;1.40;1.30;;;33.90;54.00;;;;;;5052927;28;20108;-57
2022/08/08 12:02:49;;;;;;;2.65;1.50;;;33.70;53.40;;;;;;5053305;28;20028;-58
2022/08/08 12:05:15;;;;;;;3.60;1.45;;;33.70;53.80;;;;;;5052892;28;20036;-58
2022/08/08 12:07:52;;;;;;;3.00;1.33;;;33.70;54.30;;;;;;5052711;28;20028;-58
2022/08/08 12:10:26;;;;;;;4.20;1.30;;;33.90;55.10;;;;;;5052943;28;20044;-57
2022/08/08 12:13:06;;;;;;;2.60;1.40;;;34.10;54.70;;;;;;5052702;28;20017;-57
2022/08/08 12:15:35;;;;;;;1.45;1.23;;;34.00;54.90;;;;;;5052125;28;20029;-57
2022/08/08 12:18:22;;;;;;;3.83;1.42;;;34.30;55.90;;;;;;5052658;28;20031;-57
2022/08/08 12:20:53;;;;;;;2.22;1.30;;;34.30;53.70;;;;;;5052473;28;20021;-58
2022/08/08 12:23:33;;;;;;;2.63;1.27;;;34.10;54.10;;;;;;5052878;28;20067;-57
2022/08/08 12:26:19;;;;;;;2.83;1.23;;;33.90;53.00;;;;;;5052405;28;20025;-59
2022/08/08 12:28:58;;;;;;;1.95;1.23;;;33.90;53.40;;;;;;5051984;28;20021;-58
2022/08/08 12:31:34;;;;;;;3.10;1.50;;;34.00;54.20;;;;;;5052187;28;20116;-57
2022/08/08 12:34:00;;;;;;;4.05;1.30;;;34.30;54.70;;;;;;5052391;28;20095;-57
2022/08/08 12:36:41;;;;;;;2.75;1.10;;;34.40;55.40;;;;;;5052180;28;20083;-57
2022/08/08 12:39:07;;;;;;;3.42;1.27;;;34.20;55.00;;;;;;5052166;28;20031;-58
2022/08/08 12:41:35;;;;;;;3.50;1.50;;;34.30;54.70;;;;;;5052124;28;20497;-58
2022/08/08 12:44:05;;;;;;;2.60;1.30;;;34.30;54.50;;;;;;5051713;28;20463;-58
2022/08/08 12:46:31;;;;;;;2.13;1.40;;;34.20;53.20;;;;;;5052145;28;20112;-58
2022/08/08 12:49:00;;;;;;;2.05;1.50;;;34.10;53.00;;;;;;5052569;28;20113;-58
2022/08/08 12:51:26;;;;;;;2.10;1.20;;;34.10;55.20;;;;;;5052130;28;20108;-58
2022/08/08 12:53:56;;;;;;;2.10;1.30;;;34.10;55.20;;;;;;5052372;28;20188;-58
2022/08/08 12:56:32;;;;;;;3.58;1.27;;;34.50;55.10;;;;;;5052259;28;20044;-58
2022/08/08 12:58:59;;;;;;;2.75;1.40;;;34.50;54.10;;;;;;5051818;28;20021;-58
2022/08/08 13:01:37;;;;;;;1.60;1.50;;;34.30;52.00;;;;;;5051979;28;20062;-58
2022/08/08 13:04:36;;;;;;;1.83;1.50;;;34.20;52.40;;;;;;5052122;28;20025;-58
2022/08/08 13:07:06;;;;;;;2.40;1.58;;;34.30;52.70;;;;;;5051635;28;20567;-58
2022/08/08 13:09:41;;;;;;;4.13;1.60;;;34.10;52.50;;;;;;5051814;28;20025;-58
2022/08/08 13:12:15;;;;;;;2.67;1.42;;;34.10;52.50;;;;;;5052467;28;20040;-58
2022/08/08 13:14:46;;;;;;;4.57;1.30;;;34.00;52.20;;;;;;5051496;28;20041;-58
2022/08/08 13:17:13;;;;;;;1.40;1.20;;;33.80;51.10;;;;;;5051860;28;20028;-58
2022/08/08 13:19:39;;;;;;;2.92;1.50;;;33.80;51.30;;;;;;5051592;28;20112;-58
2022/08/08 13:22:06;;;;;;;1.77;1.20;;;33.80;51.80;;;;;;5051893;28;20028;-58
2022/08/08 13:24:36;;;;;;;3.00;1.35;;;33.80;53.00;;;;;;5051595;28;20029;-58
2022/08/08 13:27:11;;;;;;;1.60;1.30;;;33.90;52.90;;;;;;5051812;28;20030;-58
2022/08/08 13:29:53;;;;;;;3.50;1.45;;;33.90;52.30;;;;;;5051757;28;20033;-58
2022/08/08 13:32:24;;;;;;;3.53;1.25;;;33.80;52.50;;;;;;5051646;28;20029;-58
2022/08/08 13:34:52;;;;;;;3.63;1.40;;;33.90;53.90;;;;;;5051676;28;20605;-58
2022/08/08 13:37:18;;;;;;;4.78;1.33;;;34.00;53.50;;;;;;5051835;28;20033;-58
2022/08/08 13:39:48;;;;;;;3.25;1.38;;;33.80;52.20;;;;;;5052632;28;20082;-59
2022/08/08 13:42:15;;;;;;;1.50;1.20;;;33.70;52.00;;;;;;5055054;28;20036;-58
2022/08/08 13:44:41;;;;;;;3.47;1.50;;;33.90;53.10;;;;;;5055647;28;20041;-58
2022/08/08 13:47:07;;;;;;;4.35;1.20;;;33.90;52.60;;;;;;5055476;28;20024;-58
2022/08/08 13:49:32;;;;;;;1.42;1.20;;;33.90;52.90;;;;;;5055424;28;20028;-58
2022/08/08 13:52:01;;;;;;;1.65;1.40;;;33.90;52.60;;;;;;5055799;28;20039;-58
2022/08/08 13:54:35;;;;;;;1.50;1.10;;;33.90;52.10;;;;;;5055090;28;20525;-58